sensor_id;sensor_type;location;lat;lon;timestamp;temperature;humidity
61117;DHT22;47002;50.856;6.580;2023-01-24T00:00:59;0.40;87.70
61117;DHT22;47002;50.856;6.580;2023-01-24T00:03:26;0.40;87.70
61117;DHT22;47002;50.856;6.580;2023-01-24T00:05:52;0.40;87.60
61117;DHT22;47002;50.856;6.580;2023-01-24T00:08:19;0.40;87.60
61117;DHT22;47002;50.856;6.580;2023-01-24T00:10:47;0.40;87.70
61117;DHT22;47002;50.856;6.580;2023-01-24T00:13:13;0.40;87.60
61117;DHT22;47002;50.856;6.580;2023-01-24T00:15:40;0.50;87.60
61117;DHT22;47002;50.856;6.580;2023-01-24T00:18:05;0.50;87.60
61117;DHT22;47002;50.856;6.580;2023-01-24T00:20:31;0.50;87.60
61117;DHT22;47002;50.856;6.580;2023-01-24T00:22:57;0.50;87.60
61117;DHT22;47002;50.856;6.580;2023-01-24T00:25:22;0.50;87.60
61117;DHT22;47002;50.856;6.580;2023-01-24T00:27:49;0.50;87.50
61117;DHT22;47002;50.856;6.580;2023-01-24T00:30:15;0.50;87.50
61117;DHT22;47002;50.856;6.580;2023-01-24T00:32:41;0.50;87.40
61117;DHT22;47002;50.856;6.580;2023-01-24T00:35:07;0.50;87.30
61117;DHT22;47002;50.856;6.580;2023-01-24T00:37:33;0.50;87.30
61117;DHT22;47002;50.856;6.580;2023-01-24T00:39:59;0.50;87.20
61117;DHT22;47002;50.856;6.580;2023-01-24T00:42:24;0.50;87.10
61117;DHT22;47002;50.856;6.580;2023-01-24T00:44:51;0.50;87.00
61117;DHT22;47002;50.856;6.580;2023-01-24T00:47:17;0.50;86.90
61117;DHT22;47002;50.856;6.580;2023-01-24T00:49:43;0.50;86.90
61117;DHT22;47002;50.856;6.580;2023-01-24T00:52:09;0.50;86.90
61117;DHT22;47002;50.856;6.580;2023-01-24T00:54:34;0.50;86.90
61117;DHT22;47002;50.856;6.580;2023-01-24T00:57:00;0.60;86.80
61117;DHT22;47002;50.856;6.580;2023-01-24T00:59:25;0.60;86.80
61117;DHT22;47002;50.856;6.580;2023-01-24T01:01:52;0.60;86.80
61117;DHT22;47002;50.856;6.580;2023-01-24T01:04:18;0.60;86.80
61117;DHT22;47002;50.856;6.580;2023-01-24T01:06:44;0.60;86.70
61117;DHT22;47002;50.856;6.580;2023-01-24T01:09:10;0.60;86.70
61117;DHT22;47002;50.856;6.580;2023-01-24T01:11:36;0.60;86.70
61117;DHT22;47002;50.856;6.580;2023-01-24T01:14:02;0.60;86.60
61117;DHT22;47002;50.856;6.580;2023-01-24T01:16:27;0.60;86.60
61117;DHT22;47002;50.856;6.580;2023-01-24T01:18:55;0.60;86.60
61117;DHT22;47002;50.856;6.580;2023-01-24T01:21:21;0.60;86.60
61117;DHT22;47002;50.856;6.580;2023-01-24T01:23:47;0.60;86.50
61117;DHT22;47002;50.856;6.580;2023-01-24T01:26:15;0.60;86.60
61117;DHT22;47002;50.856;6.580;2023-01-24T01:28:41;0.60;86.70
61117;DHT22;47002;50.856;6.580;2023-01-24T01:31:06;0.60;86.80
61117;DHT22;47002;50.856;6.580;2023-01-24T01:33:32;0.60;86.80
61117;DHT22;47002;50.856;6.580;2023-01-24T01:35:59;0.60;86.90
61117;DHT22;47002;50.856;6.580;2023-01-24T01:38:25;0.60;86.90
61117;DHT22;47002;50.856;6.580;2023-01-24T01:40:51;0.50;86.90
61117;DHT22;47002;50.856;6.580;2023-01-24T01:43:18;0.50;86.80
61117;DHT22;47002;50.856;6.580;2023-01-24T01:45:46;0.60;86.70
61117;DHT22;47002;50.856;6.580;2023-01-24T01:48:18;0.50;86.70
61117;DHT22;47002;50.856;6.580;2023-01-24T01:50:48;0.60;86.70
61117;DHT22;47002;50.856;6.580;2023-01-24T01:53:17;0.50;86.70
61117;DHT22;47002;50.856;6.580;2023-01-24T01:55:47;0.60;86.60
61117;DHT22;47002;50.856;6.580;2023-01-24T01:58:15;0.60;86.70
61117;DHT22;47002;50.856;6.580;2023-01-24T02:00:41;0.50;86.70
61117;DHT22;47002;50.856;6.580;2023-01-24T02:03:10;0.60;86.50
61117;DHT22;47002;50.856;6.580;2023-01-24T02:05:37;0.60;86.40
61117;DHT22;47002;50.856;6.580;2023-01-24T02:08:05;0.60;86.30
61117;DHT22;47002;50.856;6.580;2023-01-24T02:10:34;0.60;86.30
61117;DHT22;47002;50.856;6.580;2023-01-24T02:13:00;0.60;86.30
61117;DHT22;47002;50.856;6.580;2023-01-24T02:15:26;0.60;86.20
61117;DHT22;47002;50.856;6.580;2023-01-24T02:17:52;0.60;86.10
61117;DHT22;47002;50.856;6.580;2023-01-24T02:20:35;0.60;86.10
61117;DHT22;47002;50.856;6.580;2023-01-24T02:23:11;0.60;86.00
61117;DHT22;47002;50.856;6.580;2023-01-24T02:25:45;0.60;86.10
61117;DHT22;47002;50.856;6.580;2023-01-24T02:28:13;0.50;86.00
61117;DHT22;47002;50.856;6.580;2023-01-24T02:30:39;0.60;86.10
61117;DHT22;47002;50.856;6.580;2023-01-24T02:33:13;0.60;86.20
61117;DHT22;47002;50.856;6.580;2023-01-24T02:35:39;0.60;86.20
61117;DHT22;47002;50.856;6.580;2023-01-24T02:38:09;0.50;86.30
61117;DHT22;47002;50.856;6.580;2023-01-24T02:40:37;0.50;86.40
61117;DHT22;47002;50.856;6.580;2023-01-24T02:43:04;0.60;86.30
61117;DHT22;47002;50.856;6.580;2023-01-24T02:45:34;0.50;86.30
61117;DHT22;47002;50.856;6.580;2023-01-24T02:48:00;0.50;86.10
61117;DHT22;47002;50.856;6.580;2023-01-24T02:50:27;0.50;86.00
61117;DHT22;47002;50.856;6.580;2023-01-24T02:52:53;0.50;85.70
61117;DHT22;47002;50.856;6.580;2023-01-24T02:55:19;0.50;85.70
61117;DHT22;47002;50.856;6.580;2023-01-24T02:57:45;0.60;85.70
61117;DHT22;47002;50.856;6.580;2023-01-24T03:00:12;0.50;85.70
61117;DHT22;47002;50.856;6.580;2023-01-24T03:02:39;0.50;85.70
61117;DHT22;47002;50.856;6.580;2023-01-24T03:05:05;0.50;85.70
61117;DHT22;47002;50.856;6.580;2023-01-24T03:07:31;0.50;85.60
61117;DHT22;47002;50.856;6.580;2023-01-24T03:09:56;0.50;85.50
61117;DHT22;47002;50.856;6.580;2023-01-24T03:12:22;0.50;85.50
61117;DHT22;47002;50.856;6.580;2023-01-24T03:14:48;0.50;85.40
61117;DHT22;47002;50.856;6.580;2023-01-24T03:17:13;0.50;85.40
61117;DHT22;47002;50.856;6.580;2023-01-24T03:19:40;0.50;85.50
61117;DHT22;47002;50.856;6.580;2023-01-24T03:22:06;0.50;85.60
61117;DHT22;47002;50.856;6.580;2023-01-24T03:24:32;0.40;85.70
61117;DHT22;47002;50.856;6.580;2023-01-24T03:26:57;0.50;85.80
61117;DHT22;47002;50.856;6.580;2023-01-24T03:29:23;0.40;85.80
61117;DHT22;47002;50.856;6.580;2023-01-24T03:31:49;0.40;85.90
61117;DHT22;47002;50.856;6.580;2023-01-24T03:34:14;0.40;85.90
61117;DHT22;47002;50.856;6.580;2023-01-24T03:36:42;0.40;85.80
61117;DHT22;47002;50.856;6.580;2023-01-24T03:39:08;0.40;85.80
61117;DHT22;47002;50.856;6.580;2023-01-24T03:41:34;0.40;85.80
61117;DHT22;47002;50.856;6.580;2023-01-24T03:44:00;0.40;86.00
61117;DHT22;47002;50.856;6.580;2023-01-24T03:46:25;0.40;85.90
61117;DHT22;47002;50.856;6.580;2023-01-24T03:48:51;0.40;85.70
61117;DHT22;47002;50.856;6.580;2023-01-24T03:51:17;0.40;85.80
61117;DHT22;47002;50.856;6.580;2023-01-24T03:53:44;0.40;86.10
61117;DHT22;47002;50.856;6.580;2023-01-24T03:56:09;0.40;86.20
61117;DHT22;47002;50.856;6.580;2023-01-24T03:58:35;0.40;86.30
61117;DHT22;47002;50.856;6.580;2023-01-24T04:01:01;0.40;86.30
61117;DHT22;47002;50.856;6.580;2023-01-24T04:03:26;0.40;86.40
61117;DHT22;47002;50.856;6.580;2023-01-24T04:05:52;0.40;86.50
61117;DHT22;47002;50.856;6.580;2023-01-24T04:08:18;0.40;86.50
61117;DHT22;47002;50.856;6.580;2023-01-24T04:10:45;0.40;86.50
61117;DHT22;47002;50.856;6.580;2023-01-24T04:13:11;0.30;86.50
61117;DHT22;47002;50.856;6.580;2023-01-24T04:15:38;0.30;86.30
61117;DHT22;47002;50.856;6.580;2023-01-24T04:18:05;0.30;86.20
61117;DHT22;47002;50.856;6.580;2023-01-24T04:20:32;0.30;86.30
61117;DHT22;47002;50.856;6.580;2023-01-24T04:23:00;0.30;86.10
61117;DHT22;47002;50.856;6.580;2023-01-24T04:25:26;0.30;86.10
61117;DHT22;47002;50.856;6.580;2023-01-24T04:27:53;0.20;86.10
61117;DHT22;47002;50.856;6.580;2023-01-24T04:30:19;0.20;86.10
61117;DHT22;47002;50.856;6.580;2023-01-24T04:32:45;0.30;86.10
61117;DHT22;47002;50.856;6.580;2023-01-24T04:35:16;0.30;86.10
61117;DHT22;47002;50.856;6.580;2023-01-24T04:37:41;0.30;86.10
61117;DHT22;47002;50.856;6.580;2023-01-24T04:40:08;0.30;86.20
61117;DHT22;47002;50.856;6.580;2023-01-24T04:42:34;0.30;86.10
61117;DHT22;47002;50.856;6.580;2023-01-24T04:45:01;0.20;85.90
61117;DHT22;47002;50.856;6.580;2023-01-24T04:47:27;0.30;85.90
61117;DHT22;47002;50.856;6.580;2023-01-24T04:49:52;0.30;85.90
61117;DHT22;47002;50.856;6.580;2023-01-24T04:52:18;0.20;85.90
61117;DHT22;47002;50.856;6.580;2023-01-24T04:54:44;0.20;85.80
61117;DHT22;47002;50.856;6.580;2023-01-24T04:57:11;0.20;85.90
61117;DHT22;47002;50.856;6.580;2023-01-24T04:59:37;0.20;85.90
61117;DHT22;47002;50.856;6.580;2023-01-24T05:02:04;0.20;85.70
61117;DHT22;47002;50.856;6.580;2023-01-24T05:04:29;0.20;85.80
61117;DHT22;47002;50.856;6.580;2023-01-24T05:06:55;0.20;85.70
61117;DHT22;47002;50.856;6.580;2023-01-24T05:09:21;0.20;85.70
61117;DHT22;47002;50.856;6.580;2023-01-24T05:11:47;0.20;85.70
61117;DHT22;47002;50.856;6.580;2023-01-24T05:14:13;0.20;85.80
61117;DHT22;47002;50.856;6.580;2023-01-24T05:16:38;0.20;85.90
61117;DHT22;47002;50.856;6.580;2023-01-24T05:19:06;0.20;86.00
61117;DHT22;47002;50.856;6.580;2023-01-24T05:21:32;0.20;86.10
61117;DHT22;47002;50.856;6.580;2023-01-24T05:23:57;0.20;86.20
61117;DHT22;47002;50.856;6.580;2023-01-24T05:26:25;0.20;86.10
61117;DHT22;47002;50.856;6.580;2023-01-24T05:28:51;0.20;86.30
61117;DHT22;47002;50.856;6.580;2023-01-24T05:31:18;0.20;86.50
61117;DHT22;47002;50.856;6.580;2023-01-24T05:33:43;0.20;86.50
61117;DHT22;47002;50.856;6.580;2023-01-24T05:36:12;0.20;86.60
61117;DHT22;47002;50.856;6.580;2023-01-24T05:38:38;0.20;86.50
61117;DHT22;47002;50.856;6.580;2023-01-24T05:41:06;0.20;86.40
61117;DHT22;47002;50.856;6.580;2023-01-24T05:43:32;0.10;86.50
61117;DHT22;47002;50.856;6.580;2023-01-24T05:45:58;0.10;86.50
61117;DHT22;47002;50.856;6.580;2023-01-24T05:48:24;0.10;86.60
61117;DHT22;47002;50.856;6.580;2023-01-24T05:50:50;0.10;86.70
61117;DHT22;47002;50.856;6.580;2023-01-24T05:53:22;0.10;86.70
61117;DHT22;47002;50.856;6.580;2023-01-24T05:55:54;0.10;87.00
61117;DHT22;47002;50.856;6.580;2023-01-24T05:58:19;0.20;87.20
61117;DHT22;47002;50.856;6.580;2023-01-24T06:00:45;0.20;87.10
61117;DHT22;47002;50.856;6.580;2023-01-24T06:03:11;0.20;86.80
61117;DHT22;47002;50.856;6.580;2023-01-24T06:05:36;0.20;86.20
61117;DHT22;47002;50.856;6.580;2023-01-24T06:08:02;0.20;86.50
61117;DHT22;47002;50.856;6.580;2023-01-24T06:10:29;0.30;86.90
61117;DHT22;47002;50.856;6.580;2023-01-24T06:12:55;0.30;86.80
61117;DHT22;47002;50.856;6.580;2023-01-24T06:15:20;0.30;86.40
61117;DHT22;47002;50.856;6.580;2023-01-24T06:17:46;0.30;86.20
61117;DHT22;47002;50.856;6.580;2023-01-24T06:20:13;0.30;86.90
61117;DHT22;47002;50.856;6.580;2023-01-24T06:22:44;0.30;86.80
61117;DHT22;47002;50.856;6.580;2023-01-24T06:25:19;0.40;87.20
61117;DHT22;47002;50.856;6.580;2023-01-24T06:27:47;0.40;86.60
61117;DHT22;47002;50.856;6.580;2023-01-24T06:30:14;0.40;86.50
61117;DHT22;47002;50.856;6.580;2023-01-24T06:32:53;0.30;86.50
61117;DHT22;47002;50.856;6.580;2023-01-24T06:35:25;0.40;86.20
61117;DHT22;47002;50.856;6.580;2023-01-24T06:37:54;0.30;86.10
61117;DHT22;47002;50.856;6.580;2023-01-24T06:40:22;0.40;86.40
61117;DHT22;47002;50.856;6.580;2023-01-24T06:42:50;0.40;86.10
61117;DHT22;47002;50.856;6.580;2023-01-24T06:45:16;0.40;85.90
61117;DHT22;47002;50.856;6.580;2023-01-24T06:47:42;0.40;85.80
61117;DHT22;47002;50.856;6.580;2023-01-24T06:50:13;0.40;85.90
61117;DHT22;47002;50.856;6.580;2023-01-24T06:52:39;0.40;85.90
61117;DHT22;47002;50.856;6.580;2023-01-24T06:55:06;0.40;85.70
61117;DHT22;47002;50.856;6.580;2023-01-24T06:57:31;0.30;85.70
61117;DHT22;47002;50.856;6.580;2023-01-24T06:59:58;0.30;85.80
61117;DHT22;47002;50.856;6.580;2023-01-24T07:02:24;0.20;85.80
61117;DHT22;47002;50.856;6.580;2023-01-24T07:04:50;0.20;85.90
61117;DHT22;47002;50.856;6.580;2023-01-24T07:07:15;0.20;86.00
61117;DHT22;47002;50.856;6.580;2023-01-24T07:09:41;0.20;86.10
61117;DHT22;47002;50.856;6.580;2023-01-24T07:12:07;0.10;86.10
61117;DHT22;47002;50.856;6.580;2023-01-24T07:14:32;0.20;86.10
61117;DHT22;47002;50.856;6.580;2023-01-24T07:17:00;0.10;85.80
61117;DHT22;47002;50.856;6.580;2023-01-24T07:19:26;0.10;85.70
61117;DHT22;47002;50.856;6.580;2023-01-24T07:21:53;0.10;85.70
61117;DHT22;47002;50.856;6.580;2023-01-24T07:24:20;0.10;85.80
61117;DHT22;47002;50.856;6.580;2023-01-24T07:26:47;0.10;85.70
61117;DHT22;47002;50.856;6.580;2023-01-24T07:29:12;0.10;85.70
61117;DHT22;47002;50.856;6.580;2023-01-24T07:31:38;0.10;85.80
61117;DHT22;47002;50.856;6.580;2023-01-24T07:34:05;0.10;85.90
61117;DHT22;47002;50.856;6.580;2023-01-24T07:36:31;0.10;85.90
61117;DHT22;47002;50.856;6.580;2023-01-24T07:38:56;0.10;86.00
61117;DHT22;47002;50.856;6.580;2023-01-24T07:41:23;0.10;86.10
61117;DHT22;47002;50.856;6.580;2023-01-24T07:43:48;0.10;86.20
61117;DHT22;47002;50.856;6.580;2023-01-24T07:46:14;0.10;86.10
61117;DHT22;47002;50.856;6.580;2023-01-24T07:48:40;0.10;86.00
61117;DHT22;47002;50.856;6.580;2023-01-24T07:51:07;0.10;85.70
61117;DHT22;47002;50.856;6.580;2023-01-24T07:53:33;0.10;85.90
61117;DHT22;47002;50.856;6.580;2023-01-24T07:55:59;0.10;85.90
61117;DHT22;47002;50.856;6.580;2023-01-24T07:58:24;0.10;85.80
61117;DHT22;47002;50.856;6.580;2023-01-24T08:00:50;0.10;85.70
61117;DHT22;47002;50.856;6.580;2023-01-24T08:03:16;0.10;85.80
61117;DHT22;47002;50.856;6.580;2023-01-24T08:05:42;0.10;85.80
61117;DHT22;47002;50.856;6.580;2023-01-24T08:08:09;0.20;85.70
61117;DHT22;47002;50.856;6.580;2023-01-24T08:10:34;0.10;85.70
61117;DHT22;47002;50.856;6.580;2023-01-24T08:13:00;0.20;85.60
61117;DHT22;47002;50.856;6.580;2023-01-24T08:15:26;0.20;85.60
61117;DHT22;47002;50.856;6.580;2023-01-24T08:17:52;0.20;85.40
61117;DHT22;47002;50.856;6.580;2023-01-24T08:20:18;0.20;85.30
61117;DHT22;47002;50.856;6.580;2023-01-24T08:22:43;0.20;85.30
61117;DHT22;47002;50.856;6.580;2023-01-24T08:25:10;0.20;85.00
61117;DHT22;47002;50.856;6.580;2023-01-24T08:27:40;0.20;84.90
61117;DHT22;47002;50.856;6.580;2023-01-24T08:30:07;0.20;84.80
61117;DHT22;47002;50.856;6.580;2023-01-24T08:32:32;0.20;84.70
61117;DHT22;47002;50.856;6.580;2023-01-24T08:34:58;0.20;84.70
61117;DHT22;47002;50.856;6.580;2023-01-24T08:37:24;0.30;84.90
61117;DHT22;47002;50.856;6.580;2023-01-24T08:39:49;0.30;84.90
61117;DHT22;47002;50.856;6.580;2023-01-24T08:42:16;0.30;84.90
61117;DHT22;47002;50.856;6.580;2023-01-24T08:44:42;0.40;84.80
61117;DHT22;47002;50.856;6.580;2023-01-24T08:47:08;0.40;84.80
61117;DHT22;47002;50.856;6.580;2023-01-24T08:49:34;0.50;84.80
61117;DHT22;47002;50.856;6.580;2023-01-24T08:51:59;0.50;84.80
61117;DHT22;47002;50.856;6.580;2023-01-24T08:54:25;0.50;84.70
61117;DHT22;47002;50.856;6.580;2023-01-24T08:56:51;0.60;84.70
61117;DHT22;47002;50.856;6.580;2023-01-24T08:59:18;0.60;84.60
61117;DHT22;47002;50.856;6.580;2023-01-24T09:01:44;0.60;84.50
61117;DHT22;47002;50.856;6.580;2023-01-24T09:04:10;0.70;84.40
61117;DHT22;47002;50.856;6.580;2023-01-24T09:06:36;0.70;84.20
61117;DHT22;47002;50.856;6.580;2023-01-24T09:09:02;0.70;84.20
61117;DHT22;47002;50.856;6.580;2023-01-24T09:11:28;0.70;84.40
61117;DHT22;47002;50.856;6.580;2023-01-24T09:13:53;0.70;84.40
61117;DHT22;47002;50.856;6.580;2023-01-24T09:16:20;0.80;84.40
61117;DHT22;47002;50.856;6.580;2023-01-24T09:18:46;0.80;84.00
61117;DHT22;47002;50.856;6.580;2023-01-24T09:21:12;0.80;83.80
61117;DHT22;47002;50.856;6.580;2023-01-24T09:23:38;0.80;83.90
61117;DHT22;47002;50.856;6.580;2023-01-24T09:26:04;0.90;83.90
61117;DHT22;47002;50.856;6.580;2023-01-24T09:28:29;0.90;83.10
61117;DHT22;47002;50.856;6.580;2023-01-24T09:30:55;0.80;82.90
61117;DHT22;47002;50.856;6.580;2023-01-24T09:33:22;0.80;82.90
61117;DHT22;47002;50.856;6.580;2023-01-24T09:35:52;0.80;82.70
61117;DHT22;47002;50.856;6.580;2023-01-24T09:38:17;0.80;82.70
61117;DHT22;47002;50.856;6.580;2023-01-24T09:40:44;0.80;82.70
61117;DHT22;47002;50.856;6.580;2023-01-24T09:43:15;0.80;82.90
61117;DHT22;47002;50.856;6.580;2023-01-24T09:45:51;0.80;83.10
61117;DHT22;47002;50.856;6.580;2023-01-24T09:48:21;0.90;83.20
61117;DHT22;47002;50.856;6.580;2023-01-24T09:50:50;1.00;83.10
61117;DHT22;47002;50.856;6.580;2023-01-24T09:53:19;1.00;82.90
61117;DHT22;47002;50.856;6.580;2023-01-24T09:55:47;1.10;82.90
61117;DHT22;47002;50.856;6.580;2023-01-24T09:58:23;1.10;82.80
61117;DHT22;47002;50.856;6.580;2023-01-24T10:00:51;1.10;82.80
61117;DHT22;47002;50.856;6.580;2023-01-24T10:03:20;1.10;82.50
61117;DHT22;47002;50.856;6.580;2023-01-24T10:05:49;1.10;82.70
61117;DHT22;47002;50.856;6.580;2023-01-24T10:08:21;1.10;82.70
61117;DHT22;47002;50.856;6.580;2023-01-24T10:10:53;1.20;82.70
61117;DHT22;47002;50.856;6.580;2023-01-24T10:13:44;1.10;82.40
61117;DHT22;47002;50.856;6.580;2023-01-24T10:16:28;1.20;82.30
61117;DHT22;47002;50.856;6.580;2023-01-24T10:19:06;1.20;82.30
61117;DHT22;47002;50.856;6.580;2023-01-24T10:21:49;1.20;82.40
61117;DHT22;47002;50.856;6.580;2023-01-24T10:24:20;1.30;82.30
61117;DHT22;47002;50.856;6.580;2023-01-24T10:26:49;1.20;82.00
61117;DHT22;47002;50.856;6.580;2023-01-24T10:29:17;1.30;82.00
61117;DHT22;47002;50.856;6.580;2023-01-24T10:31:52;1.20;81.90
61117;DHT22;47002;50.856;6.580;2023-01-24T10:34:25;1.30;81.90
61117;DHT22;47002;50.856;6.580;2023-01-24T10:36:55;1.20;82.10
61117;DHT22;47002;50.856;6.580;2023-01-24T10:39:22;1.30;82.10
61117;DHT22;47002;50.856;6.580;2023-01-24T10:41:48;1.30;82.10
61117;DHT22;47002;50.856;6.580;2023-01-24T10:44:15;1.30;82.30
61117;DHT22;47002;50.856;6.580;2023-01-24T10:49:52;1.40;82.20
61117;DHT22;47002;50.856;6.580;2023-01-24T10:52:21;1.50;82.00
61117;DHT22;47002;50.856;6.580;2023-01-24T10:54:49;1.50;81.70
61117;DHT22;47002;50.856;6.580;2023-01-24T10:57:24;1.50;81.80
61117;DHT22;47002;50.856;6.580;2023-01-24T10:59:52;1.50;81.70
61117;DHT22;47002;50.856;6.580;2023-01-24T11:02:20;1.60;81.50
61117;DHT22;47002;50.856;6.580;2023-01-24T11:04:46;1.60;81.50
61117;DHT22;47002;50.856;6.580;2023-01-24T11:07:26;1.60;81.50
61117;DHT22;47002;50.856;6.580;2023-01-24T11:09:53;1.70;81.70
61117;DHT22;47002;50.856;6.580;2023-01-24T11:12:18;1.70;81.40
61117;DHT22;47002;50.856;6.580;2023-01-24T11:14:47;1.80;81.20
61117;DHT22;47002;50.856;6.580;2023-01-24T11:17:30;1.80;81.20
61117;DHT22;47002;50.856;6.580;2023-01-24T11:19:57;1.70;80.80
61117;DHT22;47002;50.856;6.580;2023-01-24T11:22:26;1.70;81.00
61117;DHT22;47002;50.856;6.580;2023-01-24T11:25:01;1.70;81.10
61117;DHT22;47002;50.856;6.580;2023-01-24T11:27:28;1.70;80.90
61117;DHT22;47002;50.856;6.580;2023-01-24T11:30:05;1.80;80.80
61117;DHT22;47002;50.856;6.580;2023-01-24T11:32:37;1.70;81.00
61117;DHT22;47002;50.856;6.580;2023-01-24T11:35:10;1.80;81.40
61117;DHT22;47002;50.856;6.580;2023-01-24T11:37:57;1.80;81.30
61117;DHT22;47002;50.856;6.580;2023-01-24T11:40:32;1.80;80.80
61117;DHT22;47002;50.856;6.580;2023-01-24T11:45:58;1.80;81.00
61117;DHT22;47002;50.856;6.580;2023-01-24T11:48:32;1.80;80.70
61117;DHT22;47002;50.856;6.580;2023-01-24T11:51:07;1.80;80.60
61117;DHT22;47002;50.856;6.580;2023-01-24T11:54:05;1.80;80.70
61117;DHT22;47002;50.856;6.580;2023-01-24T11:56:38;1.90;80.70
61117;DHT22;47002;50.856;6.580;2023-01-24T11:59:13;1.80;80.20
61117;DHT22;47002;50.856;6.580;2023-01-24T12:01:50;1.80;80.00
61117;DHT22;47002;50.856;6.580;2023-01-24T12:04:42;1.80;80.30
61117;DHT22;47002;50.856;6.580;2023-01-24T12:07:13;1.80;80.50
61117;DHT22;47002;50.856;6.580;2023-01-24T12:09:47;1.80;80.50
61117;DHT22;47002;50.856;6.580;2023-01-24T12:12:17;1.70;80.60
61117;DHT22;47002;50.856;6.580;2023-01-24T12:15:08;1.70;80.60
61117;DHT22;47002;50.856;6.580;2023-01-24T12:17:57;1.80;80.80
61117;DHT22;47002;50.856;6.580;2023-01-24T12:20:34;1.80;80.80
61117;DHT22;47002;50.856;6.580;2023-01-24T12:23:10;1.90;80.80
61117;DHT22;47002;50.856;6.580;2023-01-24T12:25:43;1.90;80.50
61117;DHT22;47002;50.856;6.580;2023-01-24T12:28:14;1.90;80.50
61117;DHT22;47002;50.856;6.580;2023-01-24T12:30:47;1.90;80.60
61117;DHT22;47002;50.856;6.580;2023-01-24T12:33:21;1.90;80.50
61117;DHT22;47002;50.856;6.580;2023-01-24T12:35:51;1.90;80.40
61117;DHT22;47002;50.856;6.580;2023-01-24T12:38:22;2.00;80.50
61117;DHT22;47002;50.856;6.580;2023-01-24T12:40:55;1.90;80.50
61117;DHT22;47002;50.856;6.580;2023-01-24T12:43:30;1.90;80.40
61117;DHT22;47002;50.856;6.580;2023-01-24T12:46:08;2.00;80.20
61117;DHT22;47002;50.856;6.580;2023-01-24T12:48:40;2.00;79.90
61117;DHT22;47002;50.856;6.580;2023-01-24T12:51:15;1.90;79.90
61117;DHT22;47002;50.856;6.580;2023-01-24T12:53:56;2.00;80.00
61117;DHT22;47002;50.856;6.580;2023-01-24T12:56:30;2.00;80.10
61117;DHT22;47002;50.856;6.580;2023-01-24T12:58:58;2.00;80.40
61117;DHT22;47002;50.856;6.580;2023-01-24T13:01:37;2.00;80.20
61117;DHT22;47002;50.856;6.580;2023-01-24T13:04:15;2.00;80.00
61117;DHT22;47002;50.856;6.580;2023-01-24T13:06:50;2.00;80.10
61117;DHT22;47002;50.856;6.580;2023-01-24T13:09:24;2.00;80.10
61117;DHT22;47002;50.856;6.580;2023-01-24T13:11:55;1.90;79.90
61117;DHT22;47002;50.856;6.580;2023-01-24T13:14:23;1.80;79.50
61117;DHT22;47002;50.856;6.580;2023-01-24T13:17:04;1.80;80.00
61117;DHT22;47002;50.856;6.580;2023-01-24T13:19:47;1.70;80.10
61117;DHT22;47002;50.856;6.580;2023-01-24T13:22:36;1.80;80.30
61117;DHT22;47002;50.856;6.580;2023-01-24T13:25:26;1.80;80.50
61117;DHT22;47002;50.856;6.580;2023-01-24T13:28:01;1.90;80.40
61117;DHT22;47002;50.856;6.580;2023-01-24T13:30:34;1.90;80.20
61117;DHT22;47002;50.856;6.580;2023-01-24T13:33:03;1.90;80.10
61117;DHT22;47002;50.856;6.580;2023-01-24T13:35:30;1.90;80.30
61117;DHT22;47002;50.856;6.580;2023-01-24T13:38:02;1.90;80.10
61117;DHT22;47002;50.856;6.580;2023-01-24T13:40:30;1.90;80.30
61117;DHT22;47002;50.856;6.580;2023-01-24T13:42:57;1.90;80.70
61117;DHT22;47002;50.856;6.580;2023-01-24T13:45:50;1.90;80.80
61117;DHT22;47002;50.856;6.580;2023-01-24T13:53:59;2.00;80.50
61117;DHT22;47002;50.856;6.580;2023-01-24T13:56:25;2.00;80.60
61117;DHT22;47002;50.856;6.580;2023-01-24T13:58:52;2.00;80.40
61117;DHT22;47002;50.856;6.580;2023-01-24T14:01:19;2.00;80.10
61117;DHT22;47002;50.856;6.580;2023-01-24T14:03:54;1.90;80.10
61117;DHT22;47002;50.856;6.580;2023-01-24T14:06:20;2.00;80.30
61117;DHT22;47002;50.856;6.580;2023-01-24T14:08:49;1.90;80.60
61117;DHT22;47002;50.856;6.580;2023-01-24T14:11:32;2.00;80.80
61117;DHT22;47002;50.856;6.580;2023-01-24T14:14:20;2.00;80.90
61117;DHT22;47002;50.856;6.580;2023-01-24T14:17:02;2.00;80.70
61117;DHT22;47002;50.856;6.580;2023-01-24T14:19:35;2.00;80.60
61117;DHT22;47002;50.856;6.580;2023-01-24T14:22:02;1.90;80.60
61117;DHT22;47002;50.856;6.580;2023-01-24T14:24:31;1.90;80.60
61117;DHT22;47002;50.856;6.580;2023-01-24T14:27:00;1.90;81.00
61117;DHT22;47002;50.856;6.580;2023-01-24T14:29:35;1.90;81.20
61117;DHT22;47002;50.856;6.580;2023-01-24T14:32:03;1.90;81.50
61117;DHT22;47002;50.856;6.580;2023-01-24T14:34:35;1.90;81.40
61117;DHT22;47002;50.856;6.580;2023-01-24T14:37:08;1.90;81.60
61117;DHT22;47002;50.856;6.580;2023-01-24T14:39:34;1.90;81.50
61117;DHT22;47002;50.856;6.580;2023-01-24T14:42:01;1.90;81.50
61117;DHT22;47002;50.856;6.580;2023-01-24T14:44:30;1.80;81.40
61117;DHT22;47002;50.856;6.580;2023-01-24T14:46:58;1.80;81.00
61117;DHT22;47002;50.856;6.580;2023-01-24T14:49:30;1.70;81.00
61117;DHT22;47002;50.856;6.580;2023-01-24T14:51:55;1.70;81.10
61117;DHT22;47002;50.856;6.580;2023-01-24T14:54:22;1.60;80.80
61117;DHT22;47002;50.856;6.580;2023-01-24T14:56:48;1.60;80.90
61117;DHT22;47002;50.856;6.580;2023-01-24T14:59:16;1.50;81.10
61117;DHT22;47002;50.856;6.580;2023-01-24T15:01:44;1.50;81.30
61117;DHT22;47002;50.856;6.580;2023-01-24T15:04:24;1.50;81.50
61117;DHT22;47002;50.856;6.580;2023-01-24T15:07:06;1.50;81.60
61117;DHT22;47002;50.856;6.580;2023-01-24T15:09:31;1.50;81.80
61117;DHT22;47002;50.856;6.580;2023-01-24T15:12:11;1.40;82.00
61117;DHT22;47002;50.856;6.580;2023-01-24T15:14:37;1.40;82.30
61117;DHT22;47002;50.856;6.580;2023-01-24T15:17:04;1.40;82.30
61117;DHT22;47002;50.856;6.580;2023-01-24T15:19:31;1.40;82.30
61117;DHT22;47002;50.856;6.580;2023-01-24T15:21:57;1.40;82.20
61117;DHT22;47002;50.856;6.580;2023-01-24T15:24:25;1.40;82.40
61117;DHT22;47002;50.856;6.580;2023-01-24T15:26:52;1.40;82.50
61117;DHT22;47002;50.856;6.580;2023-01-24T15:29:37;1.40;82.70
61117;DHT22;47002;50.856;6.580;2023-01-24T15:32:22;1.40;82.50
61117;DHT22;47002;50.856;6.580;2023-01-24T15:34:51;1.40;82.60
61117;DHT22;47002;50.856;6.580;2023-01-24T15:37:17;1.30;82.50
61117;DHT22;47002;50.856;6.580;2023-01-24T15:39:43;1.30;82.80
61117;DHT22;47002;50.856;6.580;2023-01-24T15:42:14;1.30;82.50
61117;DHT22;47002;50.856;6.580;2023-01-24T15:44:44;1.20;82.50
61117;DHT22;47002;50.856;6.580;2023-01-24T15:47:19;1.20;82.60
61117;DHT22;47002;50.856;6.580;2023-01-24T15:49:56;1.10;82.80
61117;DHT22;47002;50.856;6.580;2023-01-24T15:52:23;1.10;83.00
61117;DHT22;47002;50.856;6.580;2023-01-24T15:54:53;1.10;82.90
61117;DHT22;47002;50.856;6.580;2023-01-24T15:57:22;1.10;82.90
61117;DHT22;47002;50.856;6.580;2023-01-24T15:59:51;1.00;82.90
61117;DHT22;47002;50.856;6.580;2023-01-24T16:02:19;1.00;83.10
61117;DHT22;47002;50.856;6.580;2023-01-24T16:04:45;1.00;83.30
61117;DHT22;47002;50.856;6.580;2023-01-24T16:07:10;1.00;83.40